Time;durP1;ratioP1;P1;durP2;ratioP2;P2;SDS_P1;SDS_P2;PMS_P1;PMS_P2;Temp;Humidity;BMP_temperature;BMP_pressure;BME280_temperature;BME280_humidity;BME280_pressure;Samples;Min_cycle;Max_cycle;Signal;HPM_P1;HPM_P2
2022/04/19 00:00:59;;;;;;;4.10;3.60;;;6.70;99.90;;;;;;5077176;28;20564;-58
2022/04/19 00:03:30;;;;;;;4.90;3.87;;;6.70;99.90;;;;;;5075888;28;20749;-57
2022/04/19 00:06:00;;;;;;;4.73;3.80;;;6.70;99.90;;;;;;5080661;28;20496;-57
2022/04/19 00:08:27;;;;;;;5.30;3.40;;;6.60;99.90;;;;;;5081155;28;20809;-57
2022/04/19 00:10:54;;;;;;;4.13;3.50;;;6.50;99.90;;;;;;5080492;28;20460;-57
2022/04/19 00:13:28;;;;;;;5.73;3.90;;;6.50;99.90;;;;;;5079463;28;20467;-58
2022/04/19 00:15:59;;;;;;;4.47;3.10;;;6.50;99.90;;;;;;5080804;28;20460;-58
2022/04/19 00:18:28;;;;;;;9.13;3.77;;;6.50;99.90;;;;;;5080402;28;20467;-58
2022/04/19 00:20:55;;;;;;;4.80;3.60;;;6.40;99.90;;;;;;5080857;28;20506;-57
2022/04/19 00:23:32;;;;;;;3.40;3.10;;;6.40;99.90;;;;;;5080947;28;20461;-58
2022/04/19 00:25:59;;;;;;;4.53;4.03;;;6.30;99.90;;;;;;5081029;28;20492;-56
2022/04/19 00:28:33;;;;;;;6.87;4.57;;;6.30;99.90;;;;;;5080647;28;20461;-58
2022/04/19 00:31:04;;;;;;;4.10;3.60;;;6.30;99.90;;;;;;5080649;28;20500;-58
2022/04/19 00:33:38;;;;;;;4.23;3.70;;;6.20;99.90;;;;;;5080804;28;20509;-57
2022/04/19 00:36:07;;;;;;;4.57;3.73;;;6.20;99.90;;;;;;5080667;28;20511;-57
2022/04/19 00:38:35;;;;;;;4.87;3.97;;;6.30;99.90;;;;;;5080426;28;20497;-57
2022/04/19 00:41:02;;;;;;;4.30;3.33;;;6.20;99.90;;;;;;5080097;28;20920;-57
2022/04/19 00:43:30;;;;;;;6.20;3.37;;;6.10;99.90;;;;;;5080655;28;20889;-55
2022/04/19 00:46:08;;;;;;;4.37;3.30;;;6.20;99.90;;;;;;5080473;28;20791;-57
2022/04/19 00:48:40;;;;;;;7.30;3.53;;;6.10;99.90;;;;;;5079936;28;20465;-57
2022/04/19 00:51:07;;;;;;;4.00;3.23;;;6.10;99.90;;;;;;5080493;28;20466;-57
2022/04/19 00:53:36;;;;;;;4.80;3.97;;;6.10;99.90;;;;;;5080390;28;20510;-56
2022/04/19 00:56:04;;;;;;;3.60;3.30;;;6.10;99.90;;;;;;5079984;28;20513;-57
2022/04/19 00:58:35;;;;;;;8.10;3.57;;;6.10;99.90;;;;;;5079905;28;20552;-57
2022/04/19 01:01:05;;;;;;;4.50;3.50;;;6.00;99.90;;;;;;5079994;28;20465;-58
2022/04/19 01:03:35;;;;;;;22.23;3.77;;;5.80;1.00;;;;;;5079107;28;20457;-57
2022/04/19 01:06:02;;;;;;;4.50;3.97;;;5.80;1.00;;;;;;5080019;28;20591;-58
2022/04/19 01:08:32;;;;;;;4.83;3.80;;;5.80;1.00;;;;;;5078956;28;20588;-57
2022/04/19 01:14:02;;;;;;;4.50;3.53;;;5.70;99.90;;;;;;5079461;28;20507;-57
2022/04/19 01:16:30;;;;;;;4.17;3.77;;;5.60;1.00;;;;;;5078940;28;20551;-58
2022/04/19 01:19:03;;;;;;;7.20;3.63;;;5.60;1.00;;;;;;5078714;28;20469;-58
2022/04/19 01:21:48;;;;;;;3.67;3.30;;;5.50;1.00;;;;;;5079363;28;20457;-58
2022/04/19 01:24:16;;;;;;;3.60;3.30;;;5.50;1.00;;;;;;5079164;28;20461;-57
2022/04/19 01:26:47;;;;;;;4.13;3.40;;;5.50;1.00;;;;;;5079312;28;20511;-57
2022/04/19 01:29:14;;;;;;;3.70;3.40;;;5.40;1.00;;;;;;5078824;28;20467;-58
2022/04/19 01:31:43;;;;;;;5.13;3.37;;;5.50;1.00;;;;;;5079489;28;20468;-56
2022/04/19 01:34:19;;;;;;;4.43;3.60;;;5.40;1.00;;;;;;5079442;28;20457;-57
2022/04/19 01:36:53;;;;;;;3.50;3.20;;;5.40;1.00;;;;;;5079346;28;20534;-58
2022/04/19 01:40:16;;;;;;;4.43;3.57;;;5.40;1.00;;;;;;5078158;28;20534;-56
2022/04/19 01:42:17;;;;;;;4.00;3.60;;;5.40;1.00;;;;;;5078832;28;20555;-57
2022/04/19 01:44:52;;;;;;;6.70;3.67;;;5.30;1.00;;;;;;5079038;28;20507;-57
2022/04/19 01:47:20;;;;;;;4.93;3.40;;;5.20;1.00;;;;;;5079416;28;20535;-55
2022/04/19 01:49:47;;;;;;;4.20;3.50;;;5.20;1.00;;;;;;5078292;28;20458;-56
2022/04/19 01:52:17;;;;;;;4.80;3.13;;;5.10;1.00;;;;;;5078654;28;20462;-56
2022/04/19 01:54:46;;;;;;;4.40;3.57;;;5.10;1.00;;;;;;5078312;28;20472;-57
2022/04/19 01:57:13;;;;;;;4.23;3.27;;;5.10;1.00;;;;;;5079041;28;20461;-56
2022/04/19 01:59:47;;;;;;;5.30;4.13;;;5.10;1.00;;;;;;5078370;28;20807;-57
2022/04/19 02:02:14;;;;;;;4.37;3.30;;;5.10;1.00;;;;;;5078575;28;20543;-57
2022/04/19 02:04:44;;;;;;;5.37;4.03;;;5.00;1.00;;;;;;5077439;28;20835;-58
2022/04/19 02:07:14;;;;;;;5.37;3.97;;;5.00;1.00;;;;;;5078889;28;20883;-57
2022/04/19 02:09:57;;;;;;;3.87;3.47;;;5.00;1.00;;;;;;5078642;28;20461;-57
2022/04/19 02:12:25;;;;;;;4.90;3.80;;;4.90;1.00;;;;;;5078499;28;20465;-57
2022/04/19 02:14:57;;;;;;;4.73;3.70;;;5.00;1.00;;;;;;5078166;28;20519;-57
2022/04/19 02:17:26;;;;;;;4.13;3.67;;;4.90;1.00;;;;;;5077600;28;20461;-58
2022/04/19 02:19:59;;;;;;;4.00;3.30;;;4.90;1.00;;;;;;5077936;28;20500;-57
2022/04/19 02:22:29;;;;;;;4.53;3.50;;;4.80;1.00;;;;;;5077328;28;20514;-57
2022/04/19 02:25:01;;;;;;;5.30;3.83;;;4.80;1.00;;;;;;5077937;28;20490;-57
2022/04/19 02:27:31;;;;;;;6.80;4.20;;;4.80;1.00;;;;;;5078304;28;20461;-56
2022/04/19 02:29:59;;;;;;;6.93;4.10;;;4.70;1.00;;;;;;5078270;28;20508;-57
2022/04/19 02:32:28;;;;;;;4.30;3.90;;;4.60;1.00;;;;;;5077533;28;20461;-56
2022/04/19 02:35:00;;;;;;;7.37;3.80;;;4.60;1.00;;;;;;5078256;28;20511;-57
2022/04/19 02:37:28;;;;;;;4.00;3.60;;;4.60;1.00;;;;;;5077976;28;20475;-55
2022/04/19 02:39:57;;;;;;;6.77;4.17;;;4.60;1.00;;;;;;5077997;28;20499;-57
2022/04/19 02:42:24;;;;;;;4.10;3.70;;;4.60;1.00;;;;;;5077197;28;20791;-58
2022/04/19 02:44:51;;;;;;;4.03;3.57;;;4.60;1.00;;;;;;5078060;28;20777;-57
2022/04/19 02:47:45;;;;;;;4.07;3.60;;;4.60;1.00;;;;;;5077741;28;20469;-57
2022/04/19 02:50:14;;;;;;;4.50;4.10;;;4.50;1.00;;;;;;5078032;28;20515;-57
2022/04/19 02:52:46;;;;;;;4.60;3.73;;;4.50;1.00;;;;;;5077413;28;20518;-58
2022/04/19 02:55:16;;;;;;;4.70;3.80;;;4.40;1.00;;;;;;5078317;28;20489;-57
2022/04/19 02:57:43;;;;;;;7.50;4.33;;;4.50;1.00;;;;;;5077459;28;20465;-58
2022/04/19 03:00:11;;;;;;;3.77;3.47;;;4.50;1.00;;;;;;5078321;28;20964;-58
2022/04/19 03:02:39;;;;;;;5.23;3.93;;;4.50;1.00;;;;;;5076852;28;20555;-58
2022/04/19 03:05:10;;;;;;;6.60;4.40;;;4.40;1.00;;;;;;5077252;28;20465;-57
2022/04/19 03:07:37;;;;;;;4.80;4.30;;;4.30;1.00;;;;;;5077646;28;20462;-57
2022/04/19 03:10:04;;;;;;;4.60;3.97;;;4.30;1.00;;;;;;5077868;28;20461;-58
2022/04/19 03:12:35;;;;;;;6.80;4.33;;;4.40;1.00;;;;;;5077356;28;20473;-57
2022/04/19 03:15:05;;;;;;;6.50;4.20;;;4.30;1.00;;;;;;5077159;28;20465;-57
2022/04/19 03:17:36;;;;;;;5.77;4.63;;;4.30;1.00;;;;;;5077493;28;20462;-57
2022/04/19 03:20:03;;;;;;;7.93;5.10;;;4.30;1.00;;;;;;5076817;28;20887;-58
2022/04/19 03:27:41;;;;;;;4.53;4.00;;;4.30;1.00;;;;;;5077222;28;20468;-57
2022/04/19 03:28:12;;;;;;;6.77;4.27;;;4.30;1.00;;;;;;5076928;28;20749;-56
2022/04/19 03:30:39;;;;;;;5.60;4.40;;;4.20;1.00;;;;;;5077326;28;20511;-55
2022/04/19 03:33:06;;;;;;;5.37;4.50;;;4.20;1.00;;;;;;5074776;28;20468;-56
2022/04/19 03:35:36;;;;;;;5.27;4.23;;;4.20;1.00;;;;;;5076011;28;20477;-57
2022/04/19 03:38:05;;;;;;;4.57;4.17;;;4.20;1.00;;;;;;5077275;28;20560;-57
2022/04/19 03:40:33;;;;;;;5.10;3.50;;;4.20;1.00;;;;;;5056280;28;20588;-58
2022/04/19 03:43:06;;;;;;;4.50;4.07;;;4.10;1.00;;;;;;5057203;28;20804;-56
2022/04/19 03:45:35;;;;;;;5.97;4.07;;;4.10;1.00;;;;;;5068053;28;20758;-58
2022/04/19 03:48:10;;;;;;;5.73;4.43;;;4.10;1.00;;;;;;5077099;28;20465;-57
2022/04/19 03:50:39;;;;;;;5.00;4.47;;;4.10;1.00;;;;;;5076410;28;20471;-55
2022/04/19 03:53:12;;;;;;;5.67;4.17;;;4.10;1.00;;;;;;5077046;28;20488;-57
2022/04/19 03:55:39;;;;;;;6.67;4.27;;;4.10;1.00;;;;;;5076755;28;20949;-57
2022/04/19 03:58:08;;;;;;;5.63;4.87;;;4.00;1.00;;;;;;5077168;28;20461;-57
2022/04/19 04:00:44;;;;;;;5.17;4.50;;;4.00;1.00;;;;;;5076570;28;20944;-58
2022/04/19 04:03:11;;;;;;;6.47;4.40;;;4.00;1.00;;;;;;5076979;28;20772;-58
2022/04/19 04:05:41;;;;;;;8.43;4.20;;;4.00;1.00;;;;;;5076597;28;20519;-57
2022/04/19 04:08:08;;;;;;;7.17;4.47;;;3.90;1.00;;;;;;5076531;28;20466;-58
2022/04/19 04:10:38;;;;;;;4.57;4.17;;;4.00;1.00;;;;;;5076464;28;20849;-56
2022/04/19 04:13:05;;;;;;;6.60;5.10;;;3.90;1.00;;;;;;5076948;28;20469;-57
2022/04/19 04:15:32;;;;;;;5.97;4.43;;;3.90;1.00;;;;;;5076395;28;20493;-55
2022/04/19 04:18:01;;;;;;;5.37;4.87;;;3.90;1.00;;;;;;5076224;28;20824;-58
2022/04/19 04:20:28;;;;;;;4.27;3.87;;;3.90;1.00;;;;;;5075935;28;20457;-58
2022/04/19 04:22:55;;;;;;;6.73;4.57;;;3.80;1.00;;;;;;5076558;28;20511;-57
2022/04/19 04:25:27;;;;;;;7.50;4.20;;;3.70;1.00;;;;;;5076763;28;20749;-57
2022/04/19 04:27:54;;;;;;;6.37;4.97;;;3.70;1.00;;;;;;5076387;28;20461;-58
2022/04/19 04:30:21;;;;;;;5.13;4.63;;;3.70;1.00;;;;;;5076367;28;20782;-56
2022/04/19 04:32:51;;;;;;;4.73;4.00;;;3.70;1.00;;;;;;5076157;28;20836;-57
2022/04/19 04:35:20;;;;;;;6.10;4.40;;;3.70;1.00;;;;;;5077083;28;20939;-57
2022/04/19 04:37:47;;;;;;;5.20;4.50;;;3.70;1.00;;;;;;5075692;28;20992;-58
2022/04/19 04:40:14;;;;;;;6.97;4.97;;;3.60;1.00;;;;;;5076253;28;20493;-58
2022/04/19 04:42:44;;;;;;;7.40;5.00;;;3.70;1.00;;;;;;5076339;28;20491;-57
2022/04/19 04:45:21;;;;;;;4.57;4.17;;;3.70;1.00;;;;;;5076315;28;20461;-58
2022/04/19 04:50:34;;;;;;;6.00;4.80;;;3.70;1.00;;;;;;5076194;28;20436;-57
2022/04/19 04:53:03;;;;;;;5.53;4.30;;;3.70;1.00;;;;;;5079320;28;20462;-58
2022/04/19 04:55:30;;;;;;;6.97;5.00;;;3.80;1.00;;;;;;5079802;28;20465;-58
2022/04/19 04:58:01;;;;;;;7.73;5.20;;;3.80;1.00;;;;;;5080270;28;20470;-57
2022/04/19 05:00:32;;;;;;;6.90;4.87;;;3.80;1.00;;;;;;5079634;28;20952;-58
2022/04/19 05:03:02;;;;;;;76.47;39.77;;;3.80;1.00;;;;;;5079827;28;20496;-58
2022/04/19 05:05:31;;;;;;;74.13;40.17;;;3.80;1.00;;;;;;5079122;28;20465;-58
2022/04/19 05:07:59;;;;;;;80.70;51.77;;;3.70;1.00;;;;;;5078422;28;20464;-58
2022/04/19 05:10:29;;;;;;;28.40;22.63;;;3.70;1.00;;;;;;5077879;28;20472;-57
2022/04/19 05:12:59;;;;;;;9.30;8.40;;;3.80;1.00;;;;;;5078823;28;20769;-57
2022/04/19 05:15:28;;;;;;;13.10;11.80;;;3.80;1.00;;;;;;5078804;28;20453;-58
2022/04/19 05:17:55;;;;;;;14.07;12.80;;;3.80;1.00;;;;;;5080068;28;20461;-58
2022/04/19 05:20:26;;;;;;;14.90;9.17;;;3.90;1.00;;;;;;5079132;28;20732;-57
2022/04/19 05:23:02;;;;;;;12.63;11.43;;;4.00;1.00;;;;;;5079327;28;20471;-57
2022/04/19 05:25:30;;;;;;;13.07;11.93;;;4.00;1.00;;;;;;5079652;28;20466;-57
2022/04/19 05:27:57;;;;;;;6.13;5.57;;;4.10;1.00;;;;;;5079491;28;20465;-57
2022/04/19 05:30:28;;;;;;;6.03;4.53;;;4.20;1.00;;;;;;5078819;28;20483;-57
2022/04/19 05:33:02;;;;;;;5.30;4.80;;;4.30;1.00;;;;;;5079365;28;20460;-58
2022/04/19 05:35:45;;;;;;;5.50;5.00;;;4.30;1.00;;;;;;5079169;28;20461;-58
2022/04/19 05:38:12;;;;;;;8.17;5.17;;;4.60;1.00;;;;;;5078475;28;20468;-58
2022/04/19 05:40:45;;;;;;;8.20;5.37;;;4.70;1.00;;;;;;5077773;28;20473;-59
2022/04/19 05:43:14;;;;;;;10.20;5.10;;;4.90;1.00;;;;;;5074359;28;20461;-59
2022/04/19 05:45:42;;;;;;;6.63;5.63;;;5.10;1.00;;;;;;5079314;28;20972;-59
2022/04/19 05:48:15;;;;;;;9.63;5.37;;;5.30;1.00;;;;;;5079432;28;20469;-59
2022/04/19 05:50:43;;;;;;;8.63;5.50;;;5.40;1.00;;;;;;5078052;28;20510;-58
2022/04/19 05:53:12;;;;;;;6.80;5.67;;;5.60;1.00;;;;;;5059425;28;20906;-59
2022/04/19 05:55:41;;;;;;;7.60;6.00;;;5.80;1.00;;;;;;5064511;28;20903;-59
2022/04/19 05:58:08;;;;;;;6.53;5.77;;;5.90;1.00;;;;;;5079099;28;20461;-59
2022/04/19 06:00:35;;;;;;;6.23;5.57;;;6.10;1.00;;;;;;5078448;28;20463;-58
2022/04/19 06:05:56;;;;;;;8.40;5.43;;;6.40;1.00;;;;;;5078397;28;20458;-57
2022/04/19 06:08:25;;;;;;;6.80;5.10;;;6.70;1.00;;;;;;5076815;28;20547;-59
2022/04/19 06:10:58;;;;;;;10.30;5.40;;;7.00;1.00;;;;;;5078452;28;20474;-59
2022/04/19 06:13:29;;;;;;;9.07;5.87;;;7.20;1.00;;;;;;5076267;28;20774;-59
2022/04/19 06:15:59;;;;;;;9.87;5.63;;;7.60;1.00;;;;;;5078610;28;20465;-59
2022/04/19 06:18:29;;;;;;;9.30;6.10;;;7.80;99.90;;;;;;5078236;28;20468;-59
2022/04/19 06:20:56;;;;;;;10.60;6.27;;;8.30;99.90;;;;;;5078512;28;20464;-59
2022/04/19 06:23:32;;;;;;;9.53;6.03;;;8.60;99.90;;;;;;5078844;28;20457;-59
2022/04/19 06:26:05;;;;;;;9.77;6.27;;;9.00;99.90;;;;;;5077410;28;20499;-59
2022/04/19 06:28:38;;;;;;;6.83;6.10;;;9.40;99.90;;;;;;5077955;28;20501;-59
2022/04/19 06:31:05;;;;;;;9.47;6.27;;;9.70;99.90;;;;;;5077810;28;20519;-59
2022/04/19 06:33:34;;;;;;;12.27;8.13;;;10.10;99.90;;;;;;5078310;28;20457;-59
2022/04/19 06:36:08;;;;;;;9.57;6.03;;;10.40;99.90;;;;;;5078049;28;20511;-59
2022/04/19 06:38:35;;;;;;;9.67;7.43;;;10.80;99.90;;;;;;5058284;28;20492;-60
2022/04/19 06:41:14;;;;;;;17.10;7.37;;;11.10;99.90;;;;;;5063089;28;20579;-60
2022/04/19 06:43:41;;;;;;;9.20;6.90;;;11.50;99.90;;;;;;5077667;28;20519;-60
2022/04/19 06:46:15;;;;;;;9.07;7.07;;;11.90;99.90;;;;;;5078024;28;20458;-60
2022/04/19 06:48:44;;;;;;;8.20;7.00;;;12.30;99.90;;;;;;5077056;28;20802;-60
2022/04/19 06:51:17;;;;;;;9.73;7.47;;;12.60;99.90;;;;;;5077737;28;20519;-60
2022/04/19 06:53:47;;;;;;;9.67;8.13;;;12.60;99.90;;;;;;5078149;28;20461;-60
2022/04/19 06:56:19;;;;;;;8.23;7.37;;;12.90;99.90;;;;;;5077337;28;20457;-60
2022/04/19 06:58:57;;;;;;;9.60;7.30;;;13.10;99.90;;;;;;5077112;28;20472;-60
2022/04/19 07:01:27;;;;;;;7.90;7.10;;;12.90;99.90;;;;;;5077488;28;20461;-59
2022/04/19 07:03:54;;;;;;;8.87;7.67;;;13.00;99.90;;;;;;5077660;28;20503;-60
2022/04/19 07:06:21;;;;;;;9.40;8.40;;;13.30;99.90;;;;;;5076982;28;20542;-60
2022/04/19 07:08:55;;;;;;;9.47;8.10;;;13.40;99.90;;;;;;5076674;28;20461;-60
2022/04/19 07:11:25;;;;;;;12.17;8.63;;;13.30;99.90;;;;;;5077176;28;20472;-60
2022/04/19 07:13:52;;;;;;;9.30;7.83;;;13.50;99.90;;;;;;5077045;28;20558;-61
2022/04/19 07:16:21;;;;;;;8.97;8.07;;;13.60;99.90;;;;;;5077231;28;20546;-61
2022/04/19 07:18:48;;;;;;;11.27;9.50;;;13.80;99.90;;;;;;5076761;28;20458;-60
2022/04/19 07:26:54;;;;;;;10.20;8.50;;;14.50;99.90;;;;;;5076882;28;20468;-62
2022/04/19 07:29:24;;;;;;;16.80;8.57;;;14.60;99.90;;;;;;5076676;28;20882;-61
2022/04/19 07:31:54;;;;;;;10.27;9.30;;;14.70;99.90;;;;;;5077164;28;20873;-60
2022/04/19 07:34:21;;;;;;;8.80;7.90;;;15.00;99.90;;;;;;5076714;28;20504;-61
2022/04/19 07:36:50;;;;;;;8.50;7.37;;;15.40;99.90;;;;;;5076935;28;20493;-61
2022/04/19 07:39:19;;;;;;;9.13;8.23;;;15.60;99.90;;;;;;5076494;28;20513;-61
2022/04/19 07:41:49;;;;;;;10.50;9.40;;;15.80;99.90;;;;;;5077624;28;20465;-60
2022/04/19 07:44:20;;;;;;;9.90;8.97;;;16.00;99.90;;;;;;5076687;28;20461;-60
2022/04/19 07:46:51;;;;;;;10.63;9.53;;;16.20;99.90;;;;;;5077245;28;20759;-60
2022/04/19 07:49:20;;;;;;;12.33;8.83;;;16.30;99.90;;;;;;5076363;28;20468;-60
2022/04/19 07:51:50;;;;;;;10.00;8.57;;;15.70;99.90;;;;;;5077412;28;20954;-61
2022/04/19 07:54:19;;;;;;;9.50;8.50;;;15.80;99.90;;;;;;5076514;28;20461;-61
2022/04/19 07:56:46;;;;;;;10.53;8.60;;;16.30;99.90;;;;;;5076614;28;20493;-60
2022/04/19 07:59:16;;;;;;;9.30;8.43;;;16.50;99.90;;;;;;5076812;28;20519;-60
2022/04/19 08:01:50;;;;;;;8.87;7.67;;;16.70;99.90;;;;;;5075448;28;20518;-61
2022/04/19 08:04:22;;;;;;;9.30;8.30;;;16.60;99.90;;;;;;5076406;28;20465;-61
2022/04/19 08:06:49;;;;;;;9.07;8.17;;;16.70;99.90;;;;;;5076351;28;20518;-60
2022/04/19 08:09:16;;;;;;;8.43;7.57;;;16.90;99.90;;;;;;5076360;28;20471;-61
2022/04/19 08:11:43;;;;;;;10.80;8.20;;;16.50;99.90;;;;;;5076812;28;20493;-60
2022/04/19 08:14:15;;;;;;;10.27;9.13;;;16.80;99.90;;;;;;5076265;28;20470;-61
2022/04/19 08:16:48;;;;;;;8.33;7.60;;;16.90;99.90;;;;;;5075024;28;20542;-60
2022/04/19 08:19:17;;;;;;;8.97;8.00;;;16.80;99.90;;;;;;5075371;28;20766;-61
2022/04/19 08:21:50;;;;;;;8.73;7.60;;;17.00;99.90;;;;;;5075463;28;20614;-61
2022/04/19 08:24:18;;;;;;;10.87;8.93;;;17.20;99.90;;;;;;5076566;28;20461;-61
2022/04/19 08:26:45;;;;;;;8.57;7.67;;;17.60;99.90;;;;;;5078099;28;20758;-61
2022/04/19 08:29:15;;;;;;;8.63;7.83;;;17.60;99.90;;;;;;5080378;28;20563;-61
2022/04/19 08:31:42;;;;;;;9.60;8.60;;;18.00;99.90;;;;;;5079991;28;20457;-61
2022/04/19 08:34:12;;;;;;;8.67;7.87;;;18.20;99.90;;;;;;5079213;28;20877;-61
2022/04/19 08:36:43;;;;;;;8.33;7.53;;;17.80;99.90;;;;;;5079876;28;20555;-61
2022/04/19 08:39:13;;;;;;;10.03;7.13;;;17.90;99.90;;;;;;5080336;28;20488;-61
2022/04/19 08:41:45;;;;;;;9.50;8.60;;;18.10;99.90;;;;;;5078148;28;20530;-61
2022/04/19 08:44:15;;;;;;;8.47;7.77;;;18.50;99.90;;;;;;5060209;28;20465;-61
2022/04/19 08:46:48;;;;;;;8.43;7.63;;;18.90;99.90;;;;;;5075059;28;20924;-61
2022/04/19 08:49:26;;;;;;;8.20;7.40;;;19.30;99.90;;;;;;5079199;28;20461;-61
2022/04/19 08:52:03;;;;;;;7.50;6.80;;;19.20;99.90;;;;;;5079558;28;20514;-61
2022/04/19 08:57:31;;;;;;;8.27;7.47;;;19.20;99.90;;;;;;5079500;28;20480;-61
2022/04/19 08:59:59;;;;;;;8.10;7.40;;;18.90;99.90;;;;;;5080139;28;20502;-61
2022/04/19 09:02:37;;;;;;;8.00;7.03;;;19.10;99.90;;;;;;5079486;28;20465;-61
2022/04/19 09:05:16;;;;;;;8.43;7.13;;;19.20;99.90;;;;;;5060200;28;20457;-61
2022/04/19 09:07:44;;;;;;;7.57;6.87;;;19.60;99.90;;;;;;5067265;28;20464;-61
2022/04/19 09:10:15;;;;;;;7.03;6.37;;;19.80;99.90;;;;;;5080016;28;20457;-61
2022/04/19 09:13:02;;;;;;;7.57;6.77;;;19.40;99.90;;;;;;5079830;28;20897;-61
2022/04/19 09:15:39;;;;;;;9.40;7.07;;;19.40;99.90;;;;;;5079145;28;20490;-61
2022/04/19 09:18:24;;;;;;;7.43;6.73;;;19.30;99.90;;;;;;5079573;28;20487;-60
2022/04/19 09:20:52;;;;;;;7.00;6.40;;;19.20;99.90;;;;;;5078868;28;20471;-61
2022/04/19 09:23:21;;;;;;;7.23;6.53;;;19.60;99.90;;;;;;5079387;28;20461;-61
2022/04/19 09:25:51;;;;;;;7.50;6.80;;;19.70;99.90;;;;;;5076313;28;20477;-60
2022/04/19 09:28:25;;;;;;;6.97;6.27;;;20.20;99.90;;;;;;5078795;28;20464;-61
2022/04/19 09:30:57;;;;;;;7.37;6.67;;;20.30;99.90;;;;;;5079848;28;20479;-61
2022/04/19 09:33:25;;;;;;;6.83;6.23;;;20.20;99.90;;;;;;5079660;28;20552;-61
2022/04/19 09:35:55;;;;;;;7.43;6.73;;;20.10;99.90;;;;;;5078896;28;20538;-61
2022/04/19 09:38:38;;;;;;;7.20;6.60;;;19.70;99.90;;;;;;5077723;28;20561;-61
2022/04/19 09:41:07;;;;;;;6.80;6.20;;;19.60;99.90;;;;;;5076438;28;20587;-61
2022/04/19 09:43:36;;;;;;;10.37;6.37;;;19.60;99.90;;;;;;5078948;28;20457;-61
2022/04/19 09:46:08;;;;;;;6.93;6.23;;;19.70;99.90;;;;;;5078624;28;20461;-61
2022/04/19 09:48:36;;;;;;;8.80;6.43;;;20.40;99.90;;;;;;5078773;28;20497;-61
2022/04/19 09:51:12;;;;;;;7.67;6.90;;;20.40;99.90;;;;;;5078682;28;20824;-61
2022/04/19 09:53:41;;;;;;;6.73;6.13;;;20.50;99.90;;;;;;5079397;28;20590;-61
2022/04/19 09:56:10;;;;;;;7.60;6.90;;;20.60;99.90;;;;;;5078883;28;20551;-61
2022/04/19 09:58:39;;;;;;;7.63;6.93;;;20.00;99.90;;;;;;5078603;28;20983;-61
2022/04/19 10:01:06;;;;;;;7.70;6.97;;;20.50;99.90;;;;;;5078298;28;20535;-61
2022/04/19 10:09:10;;;;;;;7.70;6.57;;;21.00;99.90;;;;;;5072763;28;20491;-61
2022/04/19 10:11:48;;;;;;;7.50;6.60;;;20.80;99.90;;;;;;5077306;28;20461;-61
2022/04/19 10:14:21;;;;;;;7.50;6.80;;;20.80;99.90;;;;;;5074495;28;20466;-61
2022/04/19 10:16:49;;;;;;;7.43;6.73;;;21.20;99.90;;;;;;5070546;28;20548;-61
2022/04/19 10:19:17;;;;;;;6.70;6.07;;;21.10;99.90;;;;;;5075399;28;20485;-62
2022/04/19 10:21:58;;;;;;;6.70;6.00;;;20.70;99.90;;;;;;5078162;28;20552;-62
2022/04/19 10:24:27;;;;;;;9.43;6.90;;;20.90;99.90;;;;;;5070592;28;20770;-61
2022/04/19 10:27:12;;;;;;;6.93;6.33;;;21.10;99.90;;;;;;5062683;28;20492;-61
2022/04/19 10:29:50;;;;;;;7.27;6.57;;;21.30;99.90;;;;;;5078425;28;20458;-61
2022/04/19 10:32:33;;;;;;;7.23;6.47;;;21.40;99.90;;;;;;5077302;28;20499;-61
2022/04/19 10:35:09;;;;;;;8.83;8.03;;;21.30;99.90;;;;;;5077808;28;20878;-61
2022/04/19 10:37:37;;;;;;;8.10;7.40;;;21.30;99.90;;;;;;5076138;28;20824;-62
2022/04/19 10:40:14;;;;;;;6.87;6.30;;;21.60;99.90;;;;;;5076143;28;20551;-60
2022/04/19 10:42:43;;;;;;;8.57;7.77;;;21.30;99.90;;;;;;5076990;28;20457;-61
2022/04/19 10:45:25;;;;;;;8.13;7.33;;;20.50;99.90;;;;;;5077385;28;20472;-61
2022/04/19 10:48:07;;;;;;;6.87;6.17;;;20.90;99.90;;;;;;5075049;28;20449;-61
2022/04/19 10:50:39;;;;;;;7.57;6.97;;;21.80;99.90;;;;;;5076266;28;20468;-61
2022/04/19 10:53:12;;;;;;;9.97;7.60;;;21.70;99.90;;;;;;5077730;28;20840;-61
2022/04/19 10:56:02;;;;;;;8.93;6.80;;;21.10;99.90;;;;;;5077836;28;20755;-61
2022/04/19 10:58:40;;;;;;;7.73;7.03;;;21.40;99.90;;;;;;5075608;28;20489;-61
2022/04/19 11:01:07;;;;;;;7.47;6.83;;;21.70;99.90;;;;;;5059344;28;20748;-61
2022/04/19 11:03:47;;;;;;;7.50;6.80;;;21.90;99.90;;;;;;5075525;28;20470;-61
2022/04/19 11:06:31;;;;;;;7.73;7.03;;;21.50;99.90;;;;;;5076414;28;20576;-61
2022/04/19 11:09:16;;;;;;;6.87;6.17;;;21.60;99.90;;;;;;5073223;28;20896;-61
2022/04/19 11:11:47;;;;;;;7.87;7.17;;;22.20;99.90;;;;;;5060754;28;20454;-61
2022/04/19 11:14:40;;;;;;;7.90;7.10;;;21.80;99.90;;;;;;5076177;28;20480;-61
2022/04/19 11:17:45;;;;;;;8.97;6.90;;;22.30;99.90;;;;;;5058704;28;20511;-61
2022/04/19 11:20:16;;;;;;;9.87;6.87;;;22.60;99.90;;;;;;5035298;28;20466;-61
2022/04/19 11:22:51;;;;;;;7.10;6.40;;;22.20;99.90;;;;;;5064126;28;21422;-61
2022/04/19 11:25:43;;;;;;;8.20;7.17;;;21.70;99.90;;;;;;5072464;28;20897;-62
2022/04/19 11:28:31;;;;;;;7.10;6.40;;;22.00;99.90;;;;;;5074598;28;20512;-62
2022/04/19 11:31:12;;;;;;;6.63;6.03;;;22.60;99.90;;;;;;5073813;28;20465;-61
2022/04/19 11:33:39;;;;;;;7.40;6.57;;;22.50;99.90;;;;;;5073851;28;20776;-61
2022/04/19 11:36:11;;;;;;;7.80;6.60;;;22.40;99.90;;;;;;5075811;28;20457;-61
2022/04/19 11:38:44;;;;;;;7.77;7.03;;;22.60;99.90;;;;;;5073166;28;20529;-61
2022/04/19 11:46:54;;;;;;;7.27;6.57;;;22.40;99.90;;;;;;5075843;28;20458;-61
2022/04/19 11:49:35;;;;;;;9.63;7.17;;;22.40;99.90;;;;;;5074264;28;20516;-61
2022/04/19 11:52:09;;;;;;;7.50;6.80;;;22.70;99.90;;;;;;5076968;28;20483;-61
2022/04/19 11:54:37;;;;;;;6.67;5.90;;;23.00;99.90;;;;;;5071438;28;20518;-61
2022/04/19 11:57:18;;;;;;;5.97;5.37;;;22.60;99.90;;;;;;5076599;28;20766;-61
2022/04/19 11:59:45;;;;;;;5.87;5.37;;;22.20;99.90;;;;;;5077008;28;20500;-62
2022/04/19 12:02:19;;;;;;;5.70;5.20;;;23.20;99.90;;;;;;5080169;28;20457;-61
2022/04/19 12:04:50;;;;;;;5.90;5.30;;;23.50;99.90;;;;;;5078428;28;20493;-59
2022/04/19 12:07:20;;;;;;;7.70;5.77;;;23.50;99.90;;;;;;5079165;28;20565;-61
2022/04/19 12:09:59;;;;;;;6.70;6.10;;;23.60;99.90;;;;;;5081362;28;20503;-61
2022/04/19 12:12:34;;;;;;;7.10;6.40;;;23.80;99.90;;;;;;5079632;28;20964;-61
2022/04/19 12:15:04;;;;;;;5.97;5.47;;;22.70;99.90;;;;;;5081213;28;20471;-59
2022/04/19 12:17:33;;;;;;;7.50;6.90;;;22.90;99.90;;;;;;5080421;28;20867;-59
2022/04/19 12:20:05;;;;;;;8.80;6.40;;;22.70;99.90;;;;;;5077008;28;20542;-59
2022/04/19 12:22:48;;;;;;;9.03;5.87;;;23.30;99.90;;;;;;5080278;28;20779;-59
2022/04/19 12:25:24;;;;;;;5.40;5.00;;;23.60;99.90;;;;;;5079929;28;20472;-59
2022/04/19 12:27:55;;;;;;;5.87;5.37;;;23.00;99.90;;;;;;5079678;28;20463;-59
2022/04/19 12:30:35;;;;;;;6.60;6.00;;;22.40;99.90;;;;;;5079033;28;20518;-60
2022/04/19 12:33:08;;;;;;;6.63;6.03;;;23.10;99.90;;;;;;5075947;28;20563;-60
2022/04/19 12:35:36;;;;;;;6.77;6.00;;;23.20;99.90;;;;;;5079927;28;20465;-59
2022/04/19 12:38:16;;;;;;;6.03;5.47;;;22.70;99.90;;;;;;5076880;28;20503;-60
2022/04/19 12:40:44;;;;;;;7.00;6.50;;;22.60;99.90;;;;;;5078190;28;20499;-59
2022/04/19 12:43:14;;;;;;;6.13;5.63;;;23.00;99.90;;;;;;5080408;28;20501;-60
2022/04/19 12:45:45;;;;;;;6.80;6.20;;;23.20;99.90;;;;;;5080473;28;20790;-59
2022/04/19 12:48:19;;;;;;;7.47;6.77;;;23.20;99.90;;;;;;5079660;28;20457;-59
2022/04/19 12:50:48;;;;;;;6.90;6.30;;;22.70;99.90;;;;;;5079547;28;20554;-60
2022/04/19 12:53:24;;;;;;;6.77;6.17;;;22.90;99.90;;;;;;5080358;28;20894;-60
2022/04/19 13:12:44;;;;;;;6.70;6.20;;;23.70;99.90;;;;;;5078438;28;20504;-60
2022/04/19 13:15:11;;;;;;;6.50;5.90;;;23.20;99.90;;;;;;5080165;28;20901;-60
2022/04/19 13:17:43;;;;;;;8.00;5.00;;;22.70;99.90;;;;;;5079842;28;20465;-59
2022/04/19 13:20:13;;;;;;;5.67;5.17;;;22.90;99.90;;;;;;5078565;28;20489;-59
2022/04/19 13:22:42;;;;;;;7.17;5.13;;;22.80;99.90;;;;;;5079313;28;20461;-60
2022/04/19 13:25:10;;;;;;;6.33;5.83;;;23.10;99.90;;;;;;5078937;28;20465;-59
2022/04/19 13:27:39;;;;;;;6.23;5.73;;;22.30;99.90;;;;;;5079545;28;20469;-59
2022/04/19 13:30:13;;;;;;;5.40;5.00;;;22.70;99.90;;;;;;5078216;28;20457;-59
2022/04/19 13:32:41;;;;;;;4.97;4.57;;;22.80;99.90;;;;;;5078747;28;20892;-60
2022/04/19 13:35:11;;;;;;;4.80;4.40;;;22.80;99.90;;;;;;5078506;28;20972;-60
2022/04/19 13:40:26;;;;;;;3.97;3.57;;;21.60;99.90;;;;;;5078002;28;20564;-60
2022/04/19 13:42:55;;;;;;;4.80;4.30;;;21.50;99.90;;;;;;5078528;28;20461;-60
2022/04/19 13:45:31;;;;;;;5.00;4.60;;;21.70;99.90;;;;;;5079107;28;20456;-59
2022/04/19 13:47:59;;;;;;;5.57;5.17;;;22.00;99.90;;;;;;5078762;28;20471;-60
2022/04/19 13:50:28;;;;;;;5.50;5.00;;;21.00;99.90;;;;;;5077557;28;20453;-61
2022/04/19 13:53:05;;;;;;;5.33;4.83;;;20.90;99.90;;;;;;5078518;28;20446;-61
2022/04/19 13:55:32;;;;;;;5.77;5.27;;;22.10;99.90;;;;;;5078013;28;20548;-61
2022/04/19 13:58:05;;;;;;;5.17;4.70;;;22.70;99.90;;;;;;5079133;28;20461;-59
2022/04/19 14:00:35;;;;;;;5.40;4.90;;;22.40;99.90;;;;;;5077957;28;20449;-59
2022/04/19 14:03:07;;;;;;;5.13;4.73;;;23.00;99.90;;;;;;5078627;28;20459;-62
2022/04/19 14:05:37;;;;;;;5.10;4.70;;;22.40;99.90;;;;;;5077243;28;20449;-61
2022/04/19 14:08:13;;;;;;;6.30;5.70;;;22.80;99.90;;;;;;5078080;28;20458;-61